createdAt,value
2022-11-27T00:00:00.637Z,16.38
2022-11-27T00:02:27.567Z,17.30
2022-11-27T00:04:54.450Z,15.35
2022-11-27T00:07:21.405Z,17.83
2022-11-27T00:09:48.315Z,16.92
2022-11-27T00:12:15.156Z,15.57
2022-11-27T00:14:42.057Z,16.40
2022-11-27T00:17:08.978Z,16.05
2022-11-27T00:19:35.822Z,17.00
2022-11-27T00:22:02.621Z,18.30
2022-11-27T00:24:29.478Z,16.75
2022-11-27T00:26:56.318Z,17.60
2022-11-27T00:29:23.158Z,17.85
2022-11-27T00:31:49.978Z,20.58
2022-11-27T00:34:16.774Z,18.25
2022-11-27T00:36:47.819Z,18.63
2022-11-27T00:39:15.121Z,18.52
2022-11-27T00:41:42.014Z,20.30
2022-11-27T00:44:08.856Z,19.52
2022-11-27T00:46:36.418Z,20.70
2022-11-27T00:49:05.932Z,21.00
2022-11-27T00:51:33.197Z,20.60
2022-11-27T00:54:00.260Z,21.10
2022-11-27T00:56:32.027Z,19.17
2022-11-27T00:58:59.185Z,18.02
2022-11-27T01:01:32.746Z,21.50
2022-11-27T01:04:01.140Z,21.58
2022-11-27T01:06:29.559Z,20.80
2022-11-27T01:08:57.400Z,20.73
2022-11-27T01:11:30.324Z,19.30
2022-11-27T01:14:00.056Z,21.50
2022-11-27T01:16:29.079Z,22.48
2022-11-27T01:18:57.988Z,21.35
2022-11-27T01:21:25.854Z,20.45
2022-11-27T01:23:54.729Z,21.23
2022-11-27T01:26:22.004Z,20.30
2022-11-27T01:28:52.971Z,20.90
2022-11-27T01:31:22.368Z,21.52
2022-11-27T01:33:56.884Z,21.85
2022-11-27T01:36:24.370Z,19.98
2022-11-27T01:38:51.715Z,21.98
2022-11-27T01:41:21.868Z,21.30
2022-11-27T01:43:51.652Z,21.35
2022-11-27T01:46:24.414Z,22.08
2022-11-27T01:48:53.398Z,20.85
2022-11-27T01:51:21.959Z,22.80
2022-11-27T01:53:49.760Z,21.27
2022-11-27T01:56:16.867Z,20.60
2022-11-27T01:58:43.885Z,21.60
2022-11-27T02:01:11.034Z,21.30
2022-11-27T02:03:37.872Z,19.25
2022-11-27T02:06:05.126Z,21.15
2022-11-27T02:08:32.234Z,21.33
2022-11-27T02:11:10.783Z,19.35
2022-11-27T02:13:44.446Z,19.63
2022-11-27T02:16:20.274Z,21.13
2022-11-27T02:19:04.908Z,19.35
2022-11-27T02:22:03.474Z,22.30
2022-11-27T02:24:48.492Z,19.70
2022-11-27T02:27:39.924Z,20.90
2022-11-27T02:30:07.686Z,20.25
2022-11-27T02:32:58.363Z,19.15
2022-11-27T02:35:44.699Z,20.15
2022-11-27T02:38:32.731Z,21.50
2022-11-27T02:41:10.302Z,21.50
2022-11-27T02:43:43.060Z,21.92
2022-11-27T02:46:13.058Z,19.77
2022-11-27T02:48:53.066Z,19.92
2022-11-27T02:51:46.437Z,20.05
2022-11-27T02:54:20.897Z,21.15
2022-11-27T02:56:50.525Z,20.35
2022-11-27T02:59:20.038Z,21.38
2022-11-27T03:01:53.561Z,20.20
2022-11-27T03:04:27.133Z,19.85
2022-11-27T03:06:57.785Z,19.40
2022-11-27T03:09:35.893Z,20.08
2022-11-27T03:12:05.686Z,19.38
2022-11-27T03:19:00.514Z,20.15
2022-11-27T03:21:27.435Z,20.73
2022-11-27T03:23:54.366Z,21.38
2022-11-27T03:26:21.305Z,22.85
2022-11-27T03:28:50.971Z,23.02
2022-11-27T03:31:17.906Z,22.63
2022-11-27T03:33:45.163Z,20.20
2022-11-27T03:36:18.196Z,20.27
2022-11-27T03:38:46.840Z,21.67
2022-11-27T03:41:28.725Z,20.52
2022-11-27T03:44:23.828Z,21.10
2022-11-27T03:47:16.464Z,21.02
2022-11-27T03:50:17.616Z,21.08
2022-11-27T03:53:02.651Z,22.52
2022-11-27T03:55:55.447Z,20.00
2022-11-27T03:58:36.173Z,22.55
2022-11-27T04:01:05.799Z,20.80
2022-11-27T04:03:32.817Z,21.15
2022-11-27T04:05:59.816Z,21.20
2022-11-27T04:08:26.624Z,21.63
2022-11-27T04:10:53.565Z,19.58
2022-11-27T04:13:20.400Z,20.70
2022-11-27T04:15:47.299Z,21.42
2022-11-27T04:18:14.133Z,22.65
2022-11-27T04:20:40.968Z,20.80
2022-11-27T04:23:07.815Z,21.70
2022-11-27T04:25:34.651Z,20.77
2022-11-27T04:28:01.551Z,22.15
2022-11-27T04:30:28.350Z,20.85
2022-11-27T04:32:55.181Z,22.23
2022-11-27T04:35:22.075Z,18.80
2022-11-27T04:37:48.926Z,19.58
2022-11-27T04:40:15.854Z,21.20
2022-11-27T04:42:42.704Z,20.65
2022-11-27T04:45:10.074Z,20.75
2022-11-27T04:47:36.906Z,20.95
2022-11-27T04:50:04.118Z,21.20
2022-11-27T04:52:30.899Z,20.05
2022-11-27T04:55:00.264Z,21.50
2022-11-27T04:57:27.371Z,20.33
2022-11-27T04:59:54.215Z,20.35
2022-11-27T05:02:21.321Z,21.48
2022-11-27T05:04:48.123Z,21.00
2022-11-27T05:07:14.984Z,19.65
2022-11-27T05:09:41.847Z,20.23
2022-11-27T05:12:08.711Z,19.40
2022-11-27T05:14:35.537Z,19.90
2022-11-27T05:17:03.576Z,19.88
2022-11-27T05:19:31.830Z,21.05
2022-11-27T05:21:59.157Z,20.45
2022-11-27T05:24:28.436Z,20.83
2022-11-27T05:26:56.349Z,21.35
2022-11-27T05:29:24.608Z,22.20
2022-11-27T05:31:52.009Z,19.30
2022-11-27T05:34:19.481Z,20.13
2022-11-27T05:36:46.869Z,20.70
2022-11-27T05:39:13.837Z,21.92
2022-11-27T05:41:43.131Z,20.85
2022-11-27T05:44:15.153Z,21.33
2022-11-27T05:46:45.298Z,20.80
2022-11-27T05:49:13.998Z,19.02
2022-11-27T05:51:44.134Z,19.77
2022-11-27T05:54:13.319Z,19.30
2022-11-27T05:56:40.177Z,19.52
2022-11-27T05:59:07.007Z,18.75
2022-11-27T06:01:33.897Z,18.33
2022-11-27T06:04:01.296Z,19.80
2022-11-27T06:06:28.377Z,20.00
2022-11-27T06:08:55.189Z,19.80
2022-11-27T06:11:22.959Z,19.20
2022-11-27T06:13:50.685Z,20.35
2022-11-27T06:16:22.945Z,19.30
2022-11-27T06:18:54.645Z,19.20
2022-11-27T06:21:23.307Z,20.55
2022-11-27T06:23:54.403Z,19.75
2022-11-27T06:26:24.836Z,20.95
2022-11-27T06:28:52.400Z,19.58
2022-11-27T06:31:21.921Z,19.42
2022-11-27T06:33:50.616Z,20.98
2022-11-27T06:36:18.541Z,19.20
2022-11-27T06:38:46.417Z,20.10
2022-11-27T06:41:16.861Z,20.65
2022-11-27T06:43:44.281Z,21.80
2022-11-27T06:46:16.660Z,20.25
2022-11-27T06:48:45.061Z,22.52
2022-11-27T06:51:14.348Z,23.23
2022-11-27T06:53:42.277Z,23.25
2022-11-27T06:56:14.595Z,21.50
2022-11-27T06:58:42.343Z,20.95
2022-11-27T07:01:17.378Z,21.45
2022-11-27T07:03:44.991Z,21.65
2022-11-27T07:06:15.193Z,21.48
2022-11-27T07:08:42.378Z,19.70
2022-11-27T07:11:13.043Z,21.25
2022-11-27T07:13:40.266Z,19.40
2022-11-27T07:16:09.926Z,20.25
2022-11-27T07:18:39.136Z,19.67
2022-11-27T07:21:06.117Z,20.23
2022-11-27T07:23:33.150Z,21.20
2022-11-27T07:26:04.851Z,21.33
2022-11-27T07:28:31.679Z,19.10
2022-11-27T07:30:59.244Z,20.33
2022-11-27T07:33:26.284Z,19.88
2022-11-27T07:36:03.774Z,20.45
2022-11-27T07:38:30.805Z,20.63
2022-11-27T07:41:02.069Z,21.85
2022-11-27T07:43:30.086Z,19.85
2022-11-27T07:45:57.466Z,20.23
2022-11-27T07:48:24.642Z,19.15
2022-11-27T07:50:51.550Z,22.13
2022-11-27T07:53:18.358Z,20.98
2022-11-27T07:55:45.144Z,19.60
2022-11-27T07:58:12.266Z,21.15
2022-11-27T08:00:39.291Z,20.95
2022-11-27T08:03:06.438Z,20.23
2022-11-27T08:05:37.366Z,21.65
2022-11-27T08:08:04.749Z,21.75
2022-11-27T08:10:38.337Z,21.70
2022-11-27T08:13:05.896Z,20.15
2022-11-27T08:15:37.286Z,21.50
2022-11-27T08:18:04.185Z,20.60
2022-11-27T08:20:31.033Z,22.58
2022-11-27T08:23:02.767Z,23.40
2022-11-27T08:25:30.316Z,22.10
2022-11-27T08:27:57.117Z,20.83
2022-11-27T08:30:23.962Z,20.77
2022-11-27T08:32:50.861Z,22.92
2022-11-27T08:35:17.784Z,22.17
2022-11-27T08:37:44.821Z,21.90
2022-11-27T08:40:11.954Z,23.20
2022-11-27T08:42:38.781Z,23.20
2022-11-27T08:45:05.949Z,23.05
2022-11-27T08:47:32.729Z,22.75
2022-11-27T08:49:59.570Z,21.80
2022-11-27T08:52:26.602Z,23.48
2022-11-27T08:54:57.595Z,22.52
2022-11-27T08:57:25.198Z,22.95
2022-11-27T08:59:52.143Z,23.65
2022-11-27T09:02:18.957Z,22.35
2022-11-27T09:04:45.866Z,24.70
2022-11-27T09:07:15.255Z,24.65
2022-11-27T09:09:45.140Z,24.73
2022-11-27T09:12:12.366Z,22.30
2022-11-27T09:14:39.618Z,23.80
2022-11-27T09:17:06.646Z,24.20
2022-11-27T09:19:33.451Z,23.10
2022-11-27T09:22:00.225Z,24.80
2022-11-27T09:24:27.137Z,23.42
2022-11-27T09:26:53.944Z,24.25
2022-11-27T09:29:20.886Z,22.48
2022-11-27T09:31:56.877Z,23.98
2022-11-27T09:34:23.730Z,22.85
2022-11-27T09:36:50.652Z,22.05
2022-11-27T09:39:19.605Z,23.17
2022-11-27T09:41:49.133Z,21.55
2022-11-27T09:44:31.048Z,24.50
2022-11-27T09:47:04.868Z,23.63
2022-11-27T09:49:41.708Z,25.05
2022-11-27T09:52:23.705Z,24.67
2022-11-27T09:55:01.636Z,23.77
2022-11-27T09:57:37.764Z,23.63
2022-11-27T10:00:18.740Z,25.95
2022-11-27T10:02:46.087Z,24.35
2022-11-27T10:05:25.715Z,22.90
2022-11-27T10:08:07.560Z,23.15
2022-11-27T10:11:01.637Z,22.80
2022-11-27T10:14:06.732Z,22.70
2022-11-27T10:16:44.464Z,23.80
2022-11-27T10:19:45.172Z,22.05
2022-11-27T10:22:29.908Z,25.08
2022-11-27T10:25:05.278Z,23.00
2022-11-27T10:28:01.515Z,25.15
2022-11-27T10:30:31.193Z,24.70
2022-11-27T10:33:00.340Z,24.10
2022-11-27T10:35:30.769Z,24.27
2022-11-27T10:38:20.599Z,23.23
2022-11-27T10:41:03.830Z,23.33
2022-11-27T10:43:30.617Z,21.05
2022-11-27T10:46:12.811Z,22.70
2022-11-27T10:48:39.725Z,23.35
2022-11-27T10:51:17.564Z,23.02
2022-11-27T10:53:48.687Z,20.95
2022-11-27T10:56:22.491Z,22.85
2022-11-27T10:59:06.498Z,23.55
2022-11-27T11:01:53.000Z,22.60
2022-11-27T11:04:37.982Z,23.02
2022-11-27T11:07:26.820Z,21.95
2022-11-27T11:09:55.165Z,24.35
2022-11-27T11:12:23.412Z,23.73
2022-11-27T11:14:55.675Z,23.67
2022-11-27T11:17:37.233Z,22.58
2022-11-27T11:20:22.683Z,22.40
2022-11-27T11:22:49.932Z,22.75
2022-11-27T11:25:19.206Z,22.60
2022-11-27T11:27:47.959Z,23.25
2022-11-27T11:30:29.844Z,22.05
2022-11-27T11:33:04.211Z,21.75
2022-11-27T11:35:36.076Z,22.02
2022-11-27T11:38:16.037Z,21.40
2022-11-27T11:40:46.737Z,22.83
2022-11-27T11:43:29.073Z,20.52
2022-11-27T11:46:18.617Z,24.67
2022-11-27T11:48:57.426Z,23.80
2022-11-27T11:51:47.970Z,23.70
2022-11-27T11:54:23.102Z,21.13
2022-11-27T11:56:52.644Z,22.90
2022-11-27T11:59:44.904Z,22.02
2022-11-27T12:02:34.572Z,24.30
2022-11-27T12:05:31.735Z,22.42
2022-11-27T12:08:29.607Z,22.40
2022-11-27T12:11:33.612Z,20.45
2022-11-27T12:14:06.055Z,20.98
2022-11-27T12:17:05.423Z,22.58
2022-11-27T12:19:55.430Z,21.90
2022-11-27T12:22:50.256Z,23.30
2022-11-27T12:25:22.735Z,21.90
2022-11-27T12:28:26.210Z,21.25
2022-11-27T12:31:20.767Z,20.75
2022-11-27T12:33:56.451Z,22.48
2022-11-27T12:36:41.996Z,21.55
2022-11-27T12:39:23.393Z,19.15
2022-11-27T12:42:01.529Z,20.77
2022-11-27T12:44:45.040Z,21.00
2022-11-27T12:47:22.808Z,23.58
2022-11-27T12:49:57.389Z,21.38
2022-11-27T12:52:28.243Z,20.52
2022-11-27T12:55:08.703Z,22.05
2022-11-27T12:57:47.127Z,22.15
2022-11-27T13:00:23.519Z,21.70
2022-11-27T13:03:03.036Z,22.85
2022-11-27T13:05:40.598Z,21.30
2022-11-27T13:08:30.463Z,21.85
2022-11-27T13:11:05.039Z,22.67
2022-11-27T13:13:45.618Z,20.92
2022-11-27T13:16:21.588Z,22.85
2022-11-27T13:19:25.331Z,22.75
2022-11-27T13:21:54.300Z,21.50
2022-11-27T13:24:22.612Z,20.08
2022-11-27T13:27:01.343Z,20.05
2022-11-27T13:29:30.827Z,19.98
2022-11-27T13:32:01.000Z,20.73
2022-11-27T13:34:30.874Z,19.63
2022-11-27T13:37:01.410Z,22.25
2022-11-27T13:39:33.350Z,20.73
2022-11-27T13:42:20.094Z,20.52
2022-11-27T13:44:56.516Z,22.77
2022-11-27T13:47:26.321Z,22.52
2022-11-27T13:50:02.854Z,20.63
2022-11-27T13:52:30.322Z,20.05
2022-11-27T13:54:59.532Z,19.55
2022-11-27T13:57:27.880Z,21.75
2022-11-27T13:59:58.132Z,19.70
2022-11-27T14:02:26.595Z,21.63
2022-11-27T14:04:56.342Z,19.77
2022-11-27T14:07:24.573Z,21.15
2022-11-27T14:10:05.847Z,20.17
2022-11-27T14:12:34.188Z,20.73
2022-11-27T14:15:23.541Z,21.33
2022-11-27T14:17:52.592Z,19.23
2022-11-27T14:20:27.436Z,18.27
2022-11-27T14:23:11.931Z,20.17
2022-11-27T14:25:40.674Z,19.98
2022-11-27T14:28:15.499Z,20.10
2022-11-27T14:30:48.280Z,17.65
2022-11-27T14:33:31.173Z,17.77
2022-11-27T14:36:00.679Z,20.90
2022-11-27T14:38:29.329Z,19.80
2022-11-27T14:41:09.403Z,20.98
2022-11-27T14:43:36.325Z,21.85
2022-11-27T14:46:06.230Z,20.15
2022-11-27T14:48:45.790Z,19.63
2022-11-27T14:51:18.807Z,18.58
2022-11-27T14:53:47.808Z,19.75
2022-11-27T14:56:16.156Z,17.73
2022-11-27T14:58:52.254Z,20.33
2022-11-27T15:01:27.194Z,18.88
2022-11-27T15:04:25.087Z,19.95
2022-11-27T15:06:52.440Z,18.25
2022-11-27T15:09:32.189Z,19.65
2022-11-27T15:12:31.206Z,18.42
2022-11-27T15:15:04.053Z,19.50
2022-11-27T15:17:39.627Z,19.35
2022-11-27T15:20:25.845Z,18.50
2022-11-27T15:22:55.814Z,18.05
2022-11-27T15:25:51.556Z,18.52
2022-11-27T15:28:43.442Z,20.27
2022-11-27T15:31:28.685Z,19.95
2022-11-27T15:34:06.426Z,20.95
2022-11-27T15:36:39.534Z,21.08
2022-11-27T15:39:17.173Z,20.20
2022-11-27T15:42:10.960Z,19.45
2022-11-27T15:44:41.407Z,20.05
2022-11-27T15:47:19.803Z,21.63
2022-11-27T15:49:47.025Z,19.30
2022-11-27T15:52:14.021Z,19.80
2022-11-27T15:54:41.782Z,22.50
2022-11-27T15:57:08.835Z,21.85
2022-11-27T15:59:35.662Z,22.85
2022-11-27T16:02:02.538Z,24.40
2022-11-27T16:04:29.496Z,24.65
2022-11-27T16:06:56.681Z,23.50
2022-11-27T16:09:23.549Z,23.10
2022-11-27T16:11:50.668Z,26.05
2022-11-27T16:14:17.491Z,25.55
2022-11-27T16:16:44.379Z,24.65
2022-11-27T16:19:12.411Z,25.52
2022-11-27T16:21:39.586Z,24.50
2022-11-27T16:24:08.326Z,22.25
2022-11-27T16:26:38.069Z,24.52
2022-11-27T16:29:09.577Z,23.15
2022-11-27T16:31:36.832Z,24.10
2022-11-27T16:34:05.865Z,25.30
2022-11-27T16:36:32.735Z,24.45
2022-11-27T16:38:59.620Z,24.55
2022-11-27T16:41:26.537Z,26.67
2022-11-27T16:43:55.979Z,27.27
2022-11-27T16:46:28.138Z,25.40
2022-11-27T16:48:56.752Z,26.05
2022-11-27T16:51:26.451Z,25.73
2022-11-27T16:53:58.197Z,27.65
2022-11-27T16:56:27.105Z,25.60
2022-11-27T16:58:59.348Z,27.80
2022-11-27T17:01:32.793Z,26.67
2022-11-27T17:04:00.107Z,28.73
2022-11-27T17:06:29.667Z,26.55
2022-11-27T17:09:01.614Z,28.88
2022-11-27T17:11:33.590Z,27.17
2022-11-27T17:14:02.745Z,28.00
2022-11-27T17:16:29.785Z,26.67
2022-11-27T17:18:56.690Z,27.00
2022-11-27T17:21:29.273Z,24.80
2022-11-27T17:24:01.285Z,24.65
2022-11-27T17:26:33.374Z,24.35
2022-11-27T17:29:02.253Z,28.50
2022-11-27T17:31:33.607Z,24.38
2022-11-27T17:34:01.320Z,25.48
2022-11-27T17:36:33.787Z,24.08
2022-11-27T17:39:05.068Z,23.77
2022-11-27T17:41:32.012Z,23.48
2022-11-27T17:43:58.925Z,26.45
2022-11-27T17:46:28.463Z,24.20
2022-11-27T17:48:57.993Z,25.52
2022-11-27T17:51:25.744Z,24.45
2022-11-27T17:53:52.636Z,23.83
2022-11-27T17:56:20.662Z,25.35
2022-11-27T17:58:48.064Z,25.65
2022-11-27T18:01:20.904Z,25.92
2022-11-27T18:03:47.953Z,26.08
2022-11-27T18:06:16.701Z,25.40
2022-11-27T18:08:44.853Z,25.70
2022-11-27T18:11:20.420Z,24.02
2022-11-27T18:13:47.974Z,22.85
2022-11-27T18:16:24.439Z,23.23
2022-11-27T18:18:51.752Z,22.98
2022-11-27T18:21:20.278Z,23.13
2022-11-27T18:24:21.366Z,24.48
2022-11-27T18:27:06.423Z,25.17
2022-11-27T18:29:23.827Z,25.48
2022-11-27T18:31:52.013Z,26.05
2022-11-27T18:34:19.049Z,24.73
2022-11-27T18:36:46.141Z,25.85
2022-11-27T18:39:13.255Z,24.50
2022-11-27T18:41:40.782Z,24.13
2022-11-27T18:44:07.793Z,25.17
2022-11-27T18:46:34.779Z,22.80
2022-11-27T18:49:01.764Z,24.90
2022-11-27T18:51:28.592Z,25.45
2022-11-27T18:53:56.609Z,25.23
2022-11-27T18:56:26.694Z,22.98
2022-11-27T18:58:54.223Z,26.08
2022-11-27T19:01:29.940Z,24.02
2022-11-27T19:03:59.566Z,23.17
2022-11-27T19:06:26.793Z,23.05
2022-11-27T19:08:53.607Z,21.23
2022-11-27T19:11:22.206Z,25.30
2022-11-27T19:13:50.052Z,24.48
2022-11-27T19:16:21.284Z,23.35
2022-11-27T19:18:48.279Z,24.98
2022-11-27T19:21:20.940Z,22.90
2022-11-27T19:23:49.032Z,22.40
2022-11-27T19:26:18.156Z,22.23
2022-11-27T19:28:47.843Z,23.77
2022-11-27T19:31:16.380Z,25.15
2022-11-27T19:33:44.257Z,29.58
2022-11-27T19:36:14.587Z,33.83
2022-11-27T19:38:42.827Z,31.35
2022-11-27T19:41:12.252Z,29.98
2022-11-27T19:43:39.063Z,30.70
2022-11-27T19:46:14.824Z,29.90
2022-11-27T19:48:42.078Z,33.63
2022-11-27T19:51:10.044Z,33.50
2022-11-27T19:53:38.027Z,33.03
2022-11-27T19:56:05.448Z,33.88
2022-11-27T19:58:32.858Z,31.55
2022-11-27T20:01:26.010Z,33.25
2022-11-27T20:03:52.878Z,33.90
2022-11-27T20:06:22.808Z,34.28
2022-11-27T20:08:51.374Z,32.33
2022-11-27T20:11:21.668Z,34.42
2022-11-27T20:13:49.196Z,33.00
2022-11-27T20:16:19.630Z,34.00
2022-11-27T20:18:48.093Z,33.55
2022-11-27T20:21:16.145Z,32.53
2022-11-27T20:23:43.973Z,32.38
2022-11-27T20:26:14.688Z,31.02
2022-11-27T20:28:42.257Z,34.75
2022-11-27T20:31:30.281Z,33.20
2022-11-27T20:34:00.723Z,33.90
2022-11-27T20:36:29.194Z,33.95
2022-11-27T20:38:57.614Z,31.17
2022-11-27T20:41:25.520Z,34.80
2022-11-27T20:43:57.928Z,34.05
2022-11-27T20:46:25.263Z,35.17
2022-11-27T20:48:53.016Z,34.92
2022-11-27T20:51:24.259Z,37.80
2022-11-27T20:53:51.505Z,34.58
2022-11-27T20:56:20.100Z,33.85
2022-11-27T20:58:48.206Z,34.80
2022-11-27T21:01:22.362Z,34.63
2022-11-27T21:03:50.865Z,33.97
2022-11-27T21:06:20.069Z,37.00
2022-11-27T21:08:47.223Z,35.85
2022-11-27T21:11:18.275Z,34.55
2022-11-27T21:13:45.313Z,37.10
2022-11-27T21:16:13.796Z,36.38
2022-11-27T21:18:41.091Z,36.35
2022-11-27T21:21:11.398Z,37.78
2022-11-27T21:23:42.398Z,36.67
2022-11-27T21:26:11.076Z,39.35
2022-11-27T21:28:38.662Z,39.13
2022-11-27T21:31:23.709Z,40.45
2022-11-27T21:33:56.099Z,39.42
2022-11-27T21:36:25.717Z,37.72
2022-11-27T21:38:52.547Z,37.15
2022-11-27T21:41:20.070Z,40.33
2022-11-27T21:43:48.588Z,42.33
2022-11-27T21:46:18.355Z,38.55
2022-11-27T21:48:49.207Z,38.22
2022-11-27T21:51:16.455Z,38.65
2022-11-27T21:53:44.844Z,38.78
2022-11-27T21:56:14.746Z,38.42
2022-11-27T21:58:42.098Z,36.45
2022-11-27T22:01:18.563Z,36.72
2022-11-27T22:03:47.303Z,38.47
2022-11-27T22:06:16.303Z,39.08
2022-11-27T22:08:44.811Z,39.88
2022-11-27T22:11:15.224Z,39.17
2022-11-27T22:13:42.464Z,39.60
2022-11-27T22:16:15.528Z,40.75
2022-11-27T22:18:42.467Z,39.88
2022-11-27T22:21:11.380Z,37.70
2022-11-27T22:23:39.313Z,38.35
2022-11-27T22:26:08.770Z,37.28
2022-11-27T22:28:36.606Z,38.58
2022-11-27T22:31:14.808Z,38.50
2022-11-27T22:33:43.132Z,34.10
2022-11-27T22:36:25.128Z,38.60
2022-11-27T22:38:54.503Z,38.75
2022-11-27T22:41:23.870Z,40.55
2022-11-27T22:43:51.315Z,37.83
2022-11-27T22:46:28.139Z,35.85
2022-11-27T22:48:59.752Z,36.85
2022-11-27T22:51:28.199Z,36.40
2022-11-27T22:53:55.349Z,37.60
2022-11-27T22:56:22.429Z,37.47
2022-11-27T22:58:55.162Z,38.30
2022-11-27T23:01:29.024Z,35.60
2022-11-27T23:03:56.079Z,38.60
2022-11-27T23:06:23.768Z,37.08
2022-11-27T23:08:51.644Z,32.58
2022-11-27T23:11:20.921Z,37.15
2022-11-27T23:13:49.896Z,37.25
2022-11-27T23:16:17.870Z,34.67
2022-11-27T23:18:45.030Z,37.05
2022-11-27T23:21:17.920Z,35.90
2022-11-27T23:23:45.850Z,37.53
2022-11-27T23:26:18.322Z,36.63
2022-11-27T23:28:46.651Z,36.47
2022-11-27T23:31:30.087Z,36.35
2022-11-27T23:33:58.386Z,36.92
2022-11-27T23:36:25.716Z,32.63
2022-11-27T23:38:52.639Z,36.85
2022-11-27T23:41:24.853Z,34.25
2022-11-27T23:43:52.999Z,35.20
2022-11-27T23:46:22.004Z,33.55
2022-11-27T23:48:49.390Z,35.25
2022-11-27T23:51:19.005Z,33.78
2022-11-27T23:53:46.616Z,35.65
2022-11-27T23:56:16.553Z,33.75
2022-11-27T23:58:47.077Z,33.47
